Time;durP1;ratioP1;P1;durP2;ratioP2;P2;SDS_P1;SDS_P2;PMS_P1;PMS_P2;Temp;Humidity;BMP_temperature;BMP_pressure;BME280_temperature;BME280_humidity;BME280_pressure;Samples;Min_cycle;Max_cycle;Signal;HPM_P1;HPM_P2
2023/02/12 00:00:33;;;;;;;27.30;21.30;;;7.50;99.90;;;;;;5029524;28;20194;-68
2023/02/12 00:02:58;;;;;;;27.50;21.30;;;6.90;99.90;;;;;;5038184;28;20247;-67
2023/02/12 00:05:24;;;;;;;25.73;19.83;;;7.50;99.90;;;;;;5035400;28;20191;-68
2023/02/12 00:07:50;;;;;;;27.80;21.70;;;7.40;99.90;;;;;;5033860;28;20209;-67
2023/02/12 00:10:15;;;;;;;27.20;20.40;;;7.30;99.90;;;;;;5034198;28;20178;-67
2023/02/12 00:12:41;;;;;;;26.07;19.47;;;7.30;99.90;;;;;;5041753;28;20181;-67
2023/02/12 00:15:07;;;;;;;25.00;19.70;;;7.50;99.90;;;;;;5030911;28;20432;-67
2023/02/12 00:17:33;;;;;;;29.88;21.30;;;7.40;99.90;;;;;;5042293;28;20251;-67
2023/02/12 00:19:58;;;;;;;27.70;21.20;;;7.20;99.90;;;;;;5036791;28;20662;-67
2023/02/12 00:22:24;;;;;;;26.60;20.87;;;7.10;99.90;;;;;;5032992;28;20195;-68
2023/02/12 00:24:49;;;;;;;24.40;19.93;;;7.00;99.90;;;;;;5032932;28;20579;-67
2023/02/12 00:27:15;;;;;;;26.53;20.43;;;7.20;99.90;;;;;;5039216;28;20202;-68
2023/02/12 00:29:40;;;;;;;26.73;20.63;;;7.40;99.90;;;;;;5035676;28;20218;-67
2023/02/12 00:32:06;;;;;;;28.10;20.93;;;7.30;99.90;;;;;;5033015;28;20266;-68
2023/02/12 00:34:32;;;;;;;24.97;20.03;;;7.50;99.90;;;;;;5035167;28;20186;-65
2023/02/12 00:36:58;;;;;;;29.53;20.53;;;7.60;99.90;;;;;;5036163;28;20206;-67
2023/02/12 00:39:23;;;;;;;26.33;20.20;;;7.40;99.90;;;;;;5033640;28;20219;-68
2023/02/12 00:41:49;;;;;;;25.97;20.83;;;7.60;99.90;;;;;;5035876;28;20487;-68
2023/02/12 00:44:14;;;;;;;26.87;19.03;;;7.60;99.90;;;;;;5034699;28;20193;-66
2023/02/12 00:46:40;;;;;;;25.43;20.90;;;7.50;99.90;;;;;;5037856;28;20218;-65
2023/02/12 00:49:06;;;;;;;24.67;19.20;;;7.50;99.90;;;;;;5034907;28;20213;-68
2023/02/12 00:51:31;;;;;;;25.37;19.63;;;7.40;99.90;;;;;;5036583;28;20182;-68
2023/02/12 00:53:57;;;;;;;23.80;19.50;;;7.50;99.90;;;;;;5034520;28;20248;-67
2023/02/12 00:56:22;;;;;;;25.87;20.37;;;7.50;99.90;;;;;;5038794;28;20206;-67
2023/02/12 00:58:51;;;;;;;25.20;20.20;;;7.30;99.90;;;;;;5031247;28;20210;-68
2023/02/12 01:01:16;;;;;;;23.58;19.45;;;7.60;99.90;;;;;;5034937;28;20185;-67
2023/02/12 01:03:42;;;;;;;26.90;20.00;;;7.30;99.90;;;;;;5037344;28;20189;-67
2023/02/12 01:06:08;;;;;;;24.50;19.83;;;7.50;99.90;;;;;;5032006;28;20819;-67
2023/02/12 01:08:33;;;;;;;26.80;20.60;;;7.40;99.90;;;;;;5037832;28;20753;-67
2023/02/12 01:11:01;;;;;;;28.23;20.67;;;7.30;99.90;;;;;;5034343;28;20217;-67
2023/02/12 01:13:29;;;;;;;22.15;17.80;;;7.00;99.90;;;;;;5033228;28;20218;-68
2023/02/12 01:16:22;;;;;;;21.90;18.58;;;7.20;99.90;;;;;;5036310;28;20205;-67
2023/02/12 01:18:48;;;;;;;25.27;19.10;;;7.40;99.90;;;;;;5030327;28;20201;-68
2023/02/12 01:21:17;;;;;;;22.58;18.90;;;7.00;99.90;;;;;;5030740;28;20201;-67
2023/02/12 01:23:43;;;;;;;24.15;19.00;;;7.20;99.90;;;;;;5030271;28;20244;-67
2023/02/12 01:26:10;;;;;;;21.90;18.70;;;7.20;99.90;;;;;;5030318;28;20210;-67
2023/02/12 01:28:40;;;;;;;24.80;19.02;;;7.50;99.90;;;;;;5030625;28;20238;-67
2023/02/12 01:31:24;;;;;;;26.27;19.20;;;7.10;99.90;;;;;;5033880;28;20171;-67
2023/02/12 01:33:52;;;;;;;25.23;19.90;;;7.30;99.90;;;;;;5035424;28;20251;-67
2023/02/12 01:36:17;;;;;;;19.90;17.25;;;7.50;99.90;;;;;;5035136;28;20206;-68
2023/02/12 01:38:43;;;;;;;21.70;18.13;;;7.30;99.90;;;;;;5031778;28;20237;-67
2023/02/12 01:41:15;;;;;;;25.43;19.03;;;7.20;99.90;;;;;;5030585;28;20189;-67
2023/02/12 01:43:41;;;;;;;23.08;18.40;;;7.10;99.90;;;;;;5033649;28;20543;-67
2023/02/12 01:46:10;;;;;;;26.87;19.03;;;6.70;99.90;;;;;;5030965;28;20328;-68
2023/02/12 01:48:39;;;;;;;24.10;19.20;;;7.30;99.90;;;;;;5034085;28;20469;-67
2023/02/12 01:51:08;;;;;;;25.17;20.00;;;7.50;99.90;;;;;;5034719;28;20228;-67
2023/02/12 01:53:38;;;;;;;27.27;20.73;;;7.20;99.90;;;;;;5029128;28;20224;-67
2023/02/12 01:56:05;;;;;;;24.48;17.95;;;7.10;99.90;;;;;;5030574;28;20236;-67
2023/02/12 01:58:36;;;;;;;24.20;19.00;;;7.30;99.90;;;;;;5031031;28;20186;-68
2023/02/12 02:01:05;;;;;;;25.30;19.42;;;7.40;99.90;;;;;;5034986;28;20201;-67
2023/02/12 02:03:32;;;;;;;25.83;18.33;;;7.30;99.90;;;;;;5030628;28;20208;-68
2023/02/12 02:06:05;;;;;;;21.10;18.80;;;7.40;99.90;;;;;;5036128;28;20753;-67
2023/02/12 02:08:32;;;;;;;25.20;19.00;;;6.90;99.90;;;;;;5034338;28;20202;-68
2023/02/12 02:10:57;;;;;;;25.20;19.25;;;7.30;99.90;;;;;;5036095;28;20179;-68
2023/02/12 02:16:20;;;;;;;22.83;19.13;;;7.30;99.90;;;;;;5038321;28;20236;-67
2023/02/12 02:19:01;;;;;;;23.17;18.25;;;7.30;99.90;;;;;;5040521;28;20186;-67
2023/02/12 02:22:09;;;;;;;26.55;20.23;;;7.30;99.90;;;;;;5039778;28;20684;-66
2023/02/12 02:24:56;;;;;;;21.65;19.35;;;6.90;99.90;;;;;;5035689;28;20189;-66
2023/02/12 02:27:33;;;;;;;25.17;19.35;;;7.10;99.90;;;;;;5038966;28;20205;-66
2023/02/12 02:30:33;;;;;;;22.75;18.95;;;7.10;99.90;;;;;;5034529;28;20209;-67
2023/02/12 02:33:18;;;;;;;26.17;19.52;;;7.00;99.90;;;;;;5034366;28;20185;-66
2023/02/12 02:36:19;;;;;;;25.92;18.83;;;7.20;99.90;;;;;;5036511;28;20193;-66
2023/02/12 02:38:54;;;;;;;22.80;18.58;;;7.00;99.90;;;;;;5034925;28;20198;-66
2023/02/12 02:41:32;;;;;;;22.55;18.70;;;7.00;99.90;;;;;;5035493;28;20306;-66
2023/02/12 02:44:01;;;;;;;28.95;20.58;;;7.10;99.90;;;;;;5032554;28;20190;-66
2023/02/12 02:46:38;;;;;;;27.00;21.10;;;7.20;99.90;;;;;;5033355;28;20202;-66
2023/02/12 02:49:12;;;;;;;24.73;19.90;;;7.20;99.90;;;;;;5037823;28;20334;-66
2023/02/12 02:51:45;;;;;;;28.45;20.63;;;7.10;99.90;;;;;;5034626;28;20186;-66
2023/02/12 02:54:17;;;;;;;24.63;19.60;;;7.50;99.90;;;;;;5034245;28;20630;-66
2023/02/12 02:56:47;;;;;;;26.17;21.20;;;7.30;99.90;;;;;;5037964;28;20284;-66
2023/02/12 02:59:25;;;;;;;23.98;19.35;;;6.90;99.90;;;;;;5034806;28;20183;-67
2023/02/12 03:01:56;;;;;;;26.58;19.02;;;7.30;99.90;;;;;;5035415;28;20228;-66
2023/02/12 03:04:34;;;;;;;23.50;18.55;;;7.10;99.90;;;;;;5040503;28;20197;-66
2023/02/12 03:07:15;;;;;;;22.65;17.60;;;7.10;99.90;;;;;;5038192;28;20201;-66
2023/02/12 03:09:46;;;;;;;22.90;17.90;;;7.10;99.90;;;;;;5036665;28;20209;-66
2023/02/12 03:12:17;;;;;;;24.88;18.25;;;7.10;99.90;;;;;;5037372;28;20174;-66
2023/02/12 03:14:49;;;;;;;24.95;19.20;;;7.10;99.90;;;;;;5040181;28;20192;-66
2023/02/12 03:17:27;;;;;;;24.20;19.08;;;6.80;99.90;;;;;;5027762;28;20248;-66
2023/02/12 03:19:59;;;;;;;24.55;19.95;;;7.10;99.90;;;;;;5039336;28;20247;-66
2023/02/12 03:22:32;;;;;;;23.75;19.83;;;7.00;99.90;;;;;;5036344;28;20194;-66
2023/02/12 03:25:04;;;;;;;24.55;18.63;;;7.20;99.90;;;;;;5036851;28;20586;-66
2023/02/12 03:27:33;;;;;;;25.35;19.10;;;7.40;99.90;;;;;;5034167;28;20205;-66
2023/02/12 03:30:00;;;;;;;24.10;19.70;;;7.30;99.90;;;;;;5031475;28;20686;-66
2023/02/12 03:33:04;;;;;;;19.33;17.23;;;7.70;99.90;;;;;;5039538;28;20181;-66
2023/02/12 03:35:50;;;;;;;26.73;19.25;;;7.40;99.90;;;;;;5028315;28;20190;-66
2023/02/12 03:38:27;;;;;;;25.13;20.13;;;7.50;99.90;;;;;;5034686;28;20190;-66
2023/02/12 03:41:03;;;;;;;20.42;18.00;;;7.10;99.90;;;;;;5038226;28;20212;-67
2023/02/12 03:43:38;;;;;;;23.73;19.13;;;7.50;99.90;;;;;;5032163;28;20248;-66
2023/02/12 03:46:35;;;;;;;22.58;18.88;;;7.30;99.90;;;;;;5036041;28;20208;-66
2023/02/12 03:49:24;;;;;;;21.20;17.50;;;7.50;99.90;;;;;;5034142;28;20309;-66
2023/02/12 03:51:50;;;;;;;25.58;18.80;;;7.30;99.90;;;;;;5039676;28;20180;-66
2023/02/12 03:54:18;;;;;;;21.20;17.27;;;7.20;99.90;;;;;;5029131;28;20181;-67
2023/02/12 03:56:53;;;;;;;23.23;17.65;;;7.20;99.90;;;;;;5033191;28;20210;-67
2023/02/12 03:59:20;;;;;;;21.85;18.77;;;7.20;99.90;;;;;;5034345;28;20225;-66
2023/02/12 04:01:48;;;;;;;24.45;17.73;;;7.20;99.90;;;;;;5033320;28;20208;-67
2023/02/12 04:04:15;;;;;;;21.35;17.65;;;7.20;99.90;;;;;;5038544;28;20185;-66
2023/02/12 04:06:41;;;;;;;21.02;17.20;;;7.50;99.90;;;;;;5038107;28;20232;-67
2023/02/12 04:09:09;;;;;;;20.00;16.40;;;7.40;99.90;;;;;;5032845;28;20344;-66
2023/02/12 04:12:08;;;;;;;21.83;17.20;;;7.70;99.90;;;;;;5040139;28;20499;-66
2023/02/12 04:14:34;;;;;;;22.50;17.83;;;7.30;99.90;;;;;;5029843;28;20186;-67
2023/02/12 04:17:24;;;;;;;21.30;17.00;;;7.10;99.90;;;;;;5036941;28;20208;-66
2023/02/12 04:20:40;;;;;;;22.15;17.65;;;7.00;99.90;;;;;;5037201;28;20667;-66
2023/02/12 04:23:14;;;;;;;22.27;18.63;;;7.10;99.90;;;;;;5033879;28;20186;-66
2023/02/12 04:25:44;;;;;;;26.05;18.08;;;7.20;99.90;;;;;;5039451;28;20555;-67
2023/02/12 04:28:46;;;;;;;24.50;19.17;;;7.30;99.90;;;;;;5034837;28;20190;-67
2023/02/12 04:31:19;;;;;;;22.23;17.85;;;7.20;99.90;;;;;;5039400;28;20186;-67
2023/02/12 04:34:01;;;;;;;24.13;19.02;;;7.20;99.90;;;;;;5036645;28;20190;-66
2023/02/12 04:36:34;;;;;;;22.50;19.05;;;7.10;99.90;;;;;;5031991;28;20679;-66
2023/02/12 04:39:05;;;;;;;24.10;17.80;;;7.40;99.90;;;;;;5028913;28;20194;-67
2023/02/12 04:41:31;;;;;;;25.85;19.33;;;7.20;99.90;;;;;;5033097;28;20916;-67
2023/02/12 04:43:57;;;;;;;22.47;17.80;;;7.30;99.90;;;;;;5034746;28;20292;-67
2023/02/12 04:46:22;;;;;;;23.30;19.30;;;7.30;99.90;;;;;;5034975;28;20481;-67
2023/02/12 04:48:57;;;;;;;23.17;18.80;;;7.00;99.90;;;;;;5037658;28;20237;-67
2023/02/12 04:51:23;;;;;;;27.13;19.98;;;7.20;99.90;;;;;;5033149;28;20569;-67
2023/02/12 04:53:49;;;;;;;23.73;19.08;;;7.30;99.90;;;;;;5029816;28;20178;-67
2023/02/12 04:56:14;;;;;;;24.38;19.15;;;7.10;99.90;;;;;;5033309;28;20293;-67
2023/02/12 04:58:41;;;;;;;23.43;18.77;;;7.00;99.90;;;;;;5034185;28;20274;-67
2023/02/12 05:01:08;;;;;;;20.80;17.63;;;7.00;99.90;;;;;;5031407;28;20194;-67
2023/02/12 05:03:34;;;;;;;22.08;18.73;;;7.30;99.90;;;;;;5033970;28;20281;-67
2023/02/12 05:06:05;;;;;;;25.50;19.42;;;7.40;99.90;;;;;;5030442;28;20210;-67
2023/02/12 05:08:31;;;;;;;24.20;19.48;;;7.50;99.90;;;;;;5028402;28;20253;-67
2023/02/12 05:10:56;;;;;;;25.07;18.83;;;7.20;99.90;;;;;;5032811;28;20220;-67
2023/02/12 05:13:22;;;;;;;23.67;19.07;;;7.30;99.90;;;;;;5031051;28;20192;-67
2023/02/12 05:15:47;;;;;;;25.47;20.00;;;6.90;99.90;;;;;;5025416;28;20285;-67
2023/02/12 05:18:13;;;;;;;23.93;19.00;;;6.80;99.90;;;;;;5033419;28;20230;-67
2023/02/12 05:20:38;;;;;;;23.77;18.63;;;6.80;99.90;;;;;;5024253;28;20261;-67
2023/02/12 05:23:04;;;;;;;27.53;19.13;;;7.10;99.90;;;;;;5032136;28;20240;-67
2023/02/12 05:25:30;;;;;;;23.87;19.30;;;7.20;99.90;;;;;;5031238;28;20676;-67
2023/02/12 05:27:56;;;;;;;25.70;20.10;;;6.80;99.90;;;;;;5026309;28;20174;-67
2023/02/12 05:30:22;;;;;;;24.50;19.40;;;6.80;99.90;;;;;;5033780;28;20213;-67
2023/02/12 05:32:47;;;;;;;25.10;20.50;;;6.70;99.90;;;;;;5028506;28;20801;-67
2023/02/12 05:35:13;;;;;;;26.10;21.50;;;6.70;99.90;;;;;;5033637;28;20214;-66
2023/02/12 05:37:38;;;;;;;23.57;19.47;;;6.70;99.90;;;;;;5034405;28;20201;-67
2023/02/12 05:40:06;;;;;;;20.90;17.93;;;6.90;99.90;;;;;;5030681;28;20183;-67
2023/02/12 05:42:31;;;;;;;22.05;19.20;;;7.00;99.90;;;;;;5028674;28;20269;-67
2023/02/12 05:44:57;;;;;;;23.27;19.23;;;7.00;99.90;;;;;;5028034;28;20265;-67
2023/02/12 05:47:22;;;;;;;25.30;19.77;;;7.10;99.90;;;;;;5033985;28;20228;-67
2023/02/12 05:49:49;;;;;;;24.95;19.75;;;7.00;99.90;;;;;;5033793;28;20226;-67
2023/02/12 05:52:14;;;;;;;24.87;19.13;;;7.00;99.90;;;;;;5037181;28;20201;-67
2023/02/12 05:54:40;;;;;;;23.80;19.10;;;7.10;99.90;;;;;;5031101;28;20220;-67
2023/02/12 05:57:06;;;;;;;25.27;19.40;;;7.50;99.90;;;;;;5029253;28;20256;-67
2023/02/12 05:59:32;;;;;;;25.27;20.60;;;7.20;99.90;;;;;;5030293;28;20252;-67
2023/02/12 06:01:58;;;;;;;25.10;20.60;;;7.30;99.90;;;;;;5031206;28;20506;-67
2023/02/12 06:04:26;;;;;;;24.50;19.03;;;7.30;99.90;;;;;;5035377;28;20250;-67
2023/02/12 06:06:54;;;;;;;24.05;20.40;;;6.80;99.90;;;;;;5033407;28;20223;-67
2023/02/12 06:09:20;;;;;;;25.90;20.35;;;7.20;99.90;;;;;;5027945;28;20210;-67
2023/02/12 06:11:46;;;;;;;32.88;21.75;;;7.20;99.90;;;;;;5030249;28;20278;-67
2023/02/12 06:14:14;;;;;;;24.83;19.23;;;7.20;99.90;;;;;;5026075;28;20254;-67
2023/02/12 06:16:42;;;;;;;27.58;19.65;;;7.50;99.90;;;;;;5031378;28;20210;-67
2023/02/12 06:19:09;;;;;;;25.25;20.77;;;7.10;99.90;;;;;;5034433;28;20271;-67
2023/02/12 06:21:34;;;;;;;26.90;21.27;;;6.90;99.90;;;;;;5033696;28;20189;-67
2023/02/12 06:24:00;;;;;;;27.20;21.00;;;6.50;99.90;;;;;;5029143;28;20187;-67
2023/02/12 06:26:25;;;;;;;29.10;21.50;;;6.60;99.90;;;;;;5029422;28;20210;-67
2023/02/12 06:28:51;;;;;;;29.70;23.00;;;7.20;99.90;;;;;;5028762;28;20217;-67
2023/02/12 06:31:27;;;;;;;26.20;21.48;;;6.80;99.90;;;;;;5031448;28;20183;-67
2023/02/12 06:33:54;;;;;;;31.42;22.67;;;7.10;99.90;;;;;;5031732;28;20183;-67
2023/02/12 06:36:21;;;;;;;27.00;21.15;;;7.20;99.90;;;;;;5027369;28;20295;-67
2023/02/12 06:38:47;;;;;;;30.00;22.73;;;7.60;99.90;;;;;;5033698;28;20185;-67
2023/02/12 06:41:12;;;;;;;31.10;23.10;;;6.90;99.90;;;;;;5032057;28;20269;-67
2023/02/12 06:43:38;;;;;;;30.97;25.13;;;7.10;99.90;;;;;;5034930;28;20270;-67
2023/02/12 06:46:04;;;;;;;24.20;21.30;;;7.50;99.90;;;;;;5033046;28;20234;-66
2023/02/12 06:48:30;;;;;;;29.02;22.92;;;7.10;99.90;;;;;;5030052;28;20248;-65
2023/02/12 06:51:02;;;;;;;25.53;21.17;;;7.00;99.90;;;;;;5029854;28;20558;-62
2023/02/12 06:53:28;;;;;;;26.13;22.30;;;6.50;99.90;;;;;;5035316;28;20445;-65
2023/02/12 06:55:53;;;;;;;28.93;22.47;;;7.10;99.90;;;;;;5039017;28;20280;-66
2023/02/12 06:58:19;;;;;;;29.47;22.30;;;6.80;99.90;;;;;;5038509;28;20174;-66
2023/02/12 07:00:44;;;;;;;29.10;21.93;;;6.90;99.90;;;;;;5038051;28;20623;-65
2023/02/12 07:03:10;;;;;;;29.43;23.23;;;7.00;99.90;;;;;;5037720;28;20192;-64
2023/02/12 07:05:38;;;;;;;28.93;22.37;;;6.90;99.90;;;;;;5038504;28;20217;-67
2023/02/12 07:08:04;;;;;;;27.13;22.15;;;7.10;99.90;;;;;;5035808;28;20185;-67
2023/02/12 07:10:30;;;;;;;33.53;23.80;;;7.40;99.90;;;;;;5034464;28;20615;-67
2023/02/12 07:12:55;;;;;;;29.87;25.33;;;7.30;99.90;;;;;;5035007;28;20178;-66
2023/02/12 07:15:21;;;;;;;28.90;23.47;;;7.10;99.90;;;;;;5031357;28;20192;-67
2023/02/12 07:17:46;;;;;;;26.70;22.07;;;6.90;99.90;;;;;;5029456;28;20190;-66
2023/02/12 07:20:12;;;;;;;29.80;22.70;;;7.30;99.90;;;;;;5032827;28;20199;-67
2023/02/12 07:22:37;;;;;;;27.50;23.40;;;7.10;99.90;;;;;;5023252;28;20198;-67
2023/02/12 07:25:03;;;;;;;31.57;22.63;;;6.60;99.90;;;;;;5027835;28;20956;-67
2023/02/12 07:27:29;;;;;;;31.77;23.27;;;7.20;99.90;;;;;;5031270;28;20240;-67
2023/02/12 07:29:54;;;;;;;29.93;23.03;;;7.50;99.90;;;;;;5033059;28;20892;-68
2023/02/12 07:32:20;;;;;;;27.17;23.37;;;7.40;99.90;;;;;;5037454;28;20186;-67
2023/02/12 07:34:46;;;;;;;29.80;22.70;;;7.70;99.90;;;;;;5030113;28;20281;-68
2023/02/12 07:37:11;;;;;;;28.13;22.63;;;7.70;99.90;;;;;;5025403;28;20238;-67
2023/02/12 07:39:37;;;;;;;27.20;22.80;;;7.80;99.90;;;;;;5036219;28;20540;-67
2023/02/12 07:42:03;;;;;;;29.47;23.70;;;8.00;99.90;;;;;;5032078;28;20201;-65
2023/02/12 07:44:30;;;;;;;28.63;23.40;;;8.20;99.90;;;;;;5025411;28;20195;-65
2023/02/12 07:46:55;;;;;;;27.48;23.98;;;7.90;99.90;;;;;;5026828;28;20740;-65
2023/02/12 07:49:21;;;;;;;28.60;22.13;;;8.20;99.90;;;;;;5031967;28;20620;-66
2023/02/12 07:51:48;;;;;;;29.40;23.42;;;8.40;99.90;;;;;;5033300;28;20240;-67
2023/02/12 07:54:14;;;;;;;29.08;23.60;;;8.80;99.90;;;;;;5027292;28;20175;-65
2023/02/12 07:56:42;;;;;;;32.70;24.08;;;8.50;99.90;;;;;;5025812;28;20207;-63
2023/02/12 07:59:11;;;;;;;30.35;24.38;;;8.60;99.90;;;;;;5039559;28;20190;-63
2023/02/12 08:01:40;;;;;;;31.27;26.13;;;8.60;99.90;;;;;;5030667;28;20217;-67
2023/02/12 08:04:14;;;;;;;30.85;24.85;;;8.30;99.90;;;;;;5031964;28;20186;-68
2023/02/12 08:06:42;;;;;;;29.73;24.48;;;8.20;99.90;;;;;;5026003;28;20214;-66
2023/02/12 08:09:10;;;;;;;31.10;25.50;;;8.10;99.90;;;;;;5026378;28;20214;-67
2023/02/12 08:11:36;;;;;;;32.95;26.45;;;8.00;99.90;;;;;;5028659;28;20273;-67
2023/02/12 08:14:03;;;;;;;31.63;25.63;;;8.20;99.90;;;;;;5032638;28;20186;-64
2023/02/12 08:16:30;;;;;;;28.27;25.23;;;7.90;99.90;;;;;;5029852;28;20613;-64
2023/02/12 08:18:56;;;;;;;28.23;24.95;;;8.30;99.90;;;;;;5035711;28;20268;-66
2023/02/12 08:21:25;;;;;;;29.58;26.05;;;8.70;99.90;;;;;;5025637;28;20258;-67
2023/02/12 08:23:52;;;;;;;32.33;26.60;;;8.10;99.90;;;;;;5037169;28;20221;-64
2023/02/12 08:26:24;;;;;;;30.20;25.98;;;7.20;99.90;;;;;;5039148;28;20263;-63
2023/02/12 08:28:53;;;;;;;31.15;25.25;;;7.80;99.90;;;;;;5032496;28;20211;-63
2023/02/12 08:31:21;;;;;;;30.70;26.10;;;8.20;99.90;;;;;;5034495;28;20185;-65
2023/02/12 08:33:48;;;;;;;31.45;24.35;;;8.40;99.90;;;;;;5032030;28;20182;-64
2023/02/12 08:36:17;;;;;;;31.40;26.45;;;8.60;99.90;;;;;;5034124;28;20203;-64
2023/02/12 08:38:44;;;;;;;32.67;26.48;;;8.70;99.90;;;;;;5035468;28;20188;-64
2023/02/12 08:41:13;;;;;;;30.40;25.90;;;8.50;99.90;;;;;;5034647;28;20313;-64
2023/02/12 08:43:39;;;;;;;34.13;25.40;;;9.00;99.90;;;;;;5034334;28;20191;-65
2023/02/12 08:46:14;;;;;;;34.35;25.65;;;9.00;99.90;;;;;;5031236;28;20256;-68
2023/02/12 08:48:41;;;;;;;33.72;25.73;;;8.80;99.90;;;;;;5034401;28;20218;-66
2023/02/12 08:51:11;;;;;;;33.17;26.08;;;9.10;99.90;;;;;;5032688;28;20190;-66
2023/02/12 08:53:39;;;;;;;30.98;24.30;;;9.20;99.90;;;;;;5029961;28;20182;-64
2023/02/12 08:56:06;;;;;;;34.58;26.00;;;9.30;99.90;;;;;;5033503;28;20204;-64
2023/02/12 08:58:32;;;;;;;29.92;25.75;;;9.20;99.90;;;;;;5033211;28;20199;-64
2023/02/12 09:00:58;;;;;;;30.83;25.85;;;9.20;99.90;;;;;;5028335;28;20191;-64
2023/02/12 09:03:24;;;;;;;34.50;25.83;;;9.40;99.90;;;;;;5035759;28;20205;-64
2023/02/12 09:05:49;;;;;;;34.67;25.40;;;9.10;99.90;;;;;;5032736;28;20277;-64
2023/02/12 09:08:15;;;;;;;34.03;24.30;;;9.20;99.90;;;;;;5031866;28;20474;-67
2023/02/12 09:10:42;;;;;;;30.20;24.60;;;9.00;99.90;;;;;;5030088;28;20260;-65
2023/02/12 09:13:09;;;;;;;30.58;23.33;;;8.80;99.90;;;;;;5027603;28;20186;-64
2023/02/12 09:15:39;;;;;;;33.22;25.67;;;9.10;99.90;;;;;;5019422;28;20675;-64
2023/02/12 09:18:06;;;;;;;28.38;24.20;;;8.60;99.90;;;;;;5029848;28;20199;-65
2023/02/12 09:20:32;;;;;;;31.60;23.77;;;9.30;99.90;;;;;;5026005;28;20186;-65
2023/02/12 09:23:00;;;;;;;30.13;22.42;;;9.20;99.90;;;;;;5038557;28;20376;-65
2023/02/12 09:25:26;;;;;;;32.08;22.70;;;9.30;99.90;;;;;;5031662;28;20193;-65
2023/02/12 09:27:52;;;;;;;34.00;26.80;;;9.40;99.90;;;;;;5035952;28;20201;-67
2023/02/12 09:30:18;;;;;;;31.80;25.40;;;9.40;99.90;;;;;;5022902;28;20208;-66
2023/02/12 09:32:43;;;;;;;35.65;27.15;;;9.60;99.90;;;;;;5033404;28;20174;-66
2023/02/12 09:35:11;;;;;;;34.43;27.40;;;9.70;99.90;;;;;;5037340;28;20191;-66
2023/02/12 09:37:38;;;;;;;32.50;27.42;;;9.60;99.90;;;;;;5035356;28;20309;-66
2023/02/12 09:40:05;;;;;;;34.78;26.88;;;9.50;99.90;;;;;;5031862;28;20791;-66
2023/02/12 09:43:17;;;;;;;36.03;27.02;;;9.40;99.90;;;;;;5031179;28;20223;-66
2023/02/12 09:45:57;;;;;;;32.25;25.92;;;9.80;99.90;;;;;;5032518;28;20762;-66
2023/02/12 09:48:46;;;;;;;34.45;26.48;;;10.00;99.90;;;;;;5031302;28;20202;-66
2023/02/12 09:51:12;;;;;;;31.42;24.25;;;9.60;99.90;;;;;;5030167;28;20187;-66
2023/02/12 09:53:42;;;;;;;30.40;25.20;;;10.00;99.90;;;;;;5032015;28;20188;-65
2023/02/12 09:56:20;;;;;;;28.42;24.52;;;10.10;99.60;;;;;;5035080;28;20203;-66
2023/02/12 09:58:55;;;;;;;29.13;23.77;;;10.10;99.50;;;;;;5031963;28;20226;-66
2023/02/12 10:01:21;;;;;;;30.52;25.83;;;10.40;99.30;;;;;;5032002;28;20320;-65
2023/02/12 10:03:50;;;;;;;29.25;25.25;;;10.10;99.30;;;;;;5032299;28;20616;-66
2023/02/12 10:06:18;;;;;;;30.92;25.02;;;9.80;99.60;;;;;;5038048;28;20218;-65
2023/02/12 10:08:53;;;;;;;31.50;25.17;;;10.20;99.40;;;;;;5030505;28;20298;-65
2023/02/12 10:11:38;;;;;;;29.33;23.25;;;9.90;99.80;;;;;;5035893;28;20176;-65
2023/02/12 10:14:23;;;;;;;29.25;23.13;;;10.50;99.90;;;;;;5029113;28;20274;-65
2023/02/12 10:17:09;;;;;;;27.58;23.58;;;9.90;99.90;;;;;;5034771;28;20215;-66
2023/02/12 10:20:04;;;;;;;31.00;24.67;;;9.90;99.90;;;;;;5036734;28;20198;-66
2023/02/12 10:22:44;;;;;;;27.40;22.40;;;10.00;99.50;;;;;;5035883;28;20667;-66
2023/02/12 10:25:36;;;;;;;25.55;21.50;;;9.70;99.90;;;;;;5024955;28;20630;-66
2023/02/12 10:28:11;;;;;;;27.00;21.30;;;9.90;99.90;;;;;;5036242;28;20194;-66
2023/02/12 10:30:43;;;;;;;25.27;21.52;;;10.20;99.90;;;;;;5033143;28;20687;-66
2023/02/12 10:33:17;;;;;;;24.45;20.95;;;9.90;99.90;;;;;;5036241;28;20188;-66
2023/02/12 10:35:49;;;;;;;31.60;21.23;;;10.20;99.80;;;;;;5037505;28;20705;-66
2023/02/12 10:38:27;;;;;;;23.67;20.02;;;10.20;99.90;;;;;;5035992;28;20198;-66
2023/02/12 10:40:56;;;;;;;24.92;20.75;;;10.40;99.90;;;;;;5041859;28;20226;-66
2023/02/12 10:43:22;;;;;;;25.73;21.90;;;10.60;99.40;;;;;;5039227;28;20180;-66
2023/02/12 10:45:49;;;;;;;27.08;20.60;;;10.50;99.00;;;;;;5041553;28;20180;-66
2023/02/12 10:48:25;;;;;;;21.63;19.05;;;10.60;99.40;;;;;;5042520;28;20282;-66
2023/02/12 10:51:06;;;;;;;25.40;20.55;;;10.60;99.40;;;;;;5035270;28;20664;-66
2023/02/12 10:53:35;;;;;;;26.60;21.23;;;10.80;99.40;;;;;;5039768;28;20244;-66
2023/02/12 10:56:17;;;;;;;25.92;20.02;;;10.80;99.50;;;;;;5034340;28;20196;-66
2023/02/12 10:58:50;;;;;;;22.35;20.02;;;10.50;99.60;;;;;;5031647;28;20189;-66
2023/02/12 11:01:24;;;;;;;27.45;19.85;;;10.60;99.90;;;;;;5038325;28;20214;-66
2023/02/12 11:03:51;;;;;;;23.10;19.45;;;10.60;99.70;;;;;;5038269;28;20207;-66
2023/02/12 11:06:24;;;;;;;21.98;18.48;;;10.70;99.60;;;;;;5040655;28;20203;-66
2023/02/12 11:08:50;;;;;;;22.33;19.08;;;10.60;99.60;;;;;;5038772;28;20209;-66
2023/02/12 11:11:24;;;;;;;24.80;18.35;;;10.90;99.70;;;;;;5035559;28;20185;-67
2023/02/12 11:14:05;;;;;;;17.92;15.23;;;10.70;99.60;;;;;;5033231;28;20177;-66
2023/02/12 11:16:36;;;;;;;17.05;14.82;;;10.60;99.90;;;;;;5033575;28;20204;-65
2023/02/12 11:19:22;;;;;;;21.08;15.70;;;10.70;99.70;;;;;;5027830;28;20664;-65
2023/02/12 11:21:49;;;;;;;16.00;13.60;;;11.00;99.40;;;;;;5033316;28;20277;-65
2023/02/12 11:24:41;;;;;;;17.45;13.25;;;11.10;99.10;;;;;;5037921;28;20188;-65
2023/02/12 11:27:23;;;;;;;18.23;13.98;;;10.90;99.00;;;;;;5036518;28;20224;-64
2023/02/12 11:30:09;;;;;;;15.02;12.77;;;11.10;99.20;;;;;;5037726;28;20223;-65
2023/02/12 11:32:36;;;;;;;16.23;13.95;;;10.80;99.30;;;;;;5032269;28;20267;-65
2023/02/12 11:35:17;;;;;;;18.08;15.13;;;10.50;99.50;;;;;;5036348;28;20520;-66
2023/02/12 11:37:44;;;;;;;21.15;15.35;;;10.80;99.90;;;;;;5034586;28;20196;-66
2023/02/12 11:40:22;;;;;;;15.18;13.40;;;10.90;99.90;;;;;;5036172;28;20762;-66
2023/02/12 11:42:56;;;;;;;12.90;11.52;;;11.00;99.90;;;;;;5027554;28;20626;-65
2023/02/12 11:45:28;;;;;;;11.48;9.93;;;10.90;99.60;;;;;;5036080;28;20192;-65
2023/02/12 11:47:54;;;;;;;9.57;8.43;;;11.30;99.50;;;;;;5039552;28;20278;-65
2023/02/12 11:50:31;;;;;;;14.53;8.77;;;11.00;99.30;;;;;;5034756;28;21558;-66
2023/02/12 11:53:08;;;;;;;8.43;6.78;;;11.10;99.30;;;;;;5034002;28;20218;-66
2023/02/12 11:55:37;;;;;;;7.70;6.90;;;11.10;99.40;;;;;;5036567;28;20188;-66
2023/02/12 11:58:23;;;;;;;7.07;6.15;;;11.20;99.50;;;;;;5036327;28;20717;-66
2023/02/12 12:00:55;;;;;;;7.70;6.75;;;11.40;99.20;;;;;;5037265;28;20192;-66
2023/02/12 12:03:37;;;;;;;7.35;6.25;;;11.20;99.40;;;;;;5038005;28;20203;-65
2023/02/12 12:06:12;;;;;;;10.18;7.25;;;11.10;99.30;;;;;;5036166;28;20706;-66
2023/02/12 12:08:43;;;;;;;7.93;6.10;;;11.00;99.30;;;;;;5036891;28;20358;-66
2023/02/12 12:11:18;;;;;;;8.50;6.82;;;11.40;99.60;;;;;;5036116;28;20662;-66
2023/02/12 12:14:08;;;;;;;8.32;6.32;;;11.10;99.40;;;;;;5038458;28;20566;-65
2023/02/12 12:20:09;;;;;;;8.32;6.32;;;11.30;99.40;;;;;;5032408;28;20235;-66
2023/02/12 12:22:45;;;;;;;9.48;6.85;;;11.10;99.30;;;;;;5031410;28;20370;-65
2023/02/12 12:25:25;;;;;;;9.57;7.70;;;11.40;99.30;;;;;;5030397;28;20191;-65
2023/02/12 12:28:05;;;;;;;9.55;7.40;;;11.20;99.30;;;;;;5040610;28;20219;-65
2023/02/12 12:30:40;;;;;;;7.18;6.47;;;11.20;99.10;;;;;;5030458;28;20199;-64
2023/02/12 12:33:22;;;;;;;7.68;6.88;;;11.10;99.40;;;;;;5035259;28;20184;-65
2023/02/12 12:36:41;;;;;;;9.05;6.97;;;11.40;99.20;;;;;;5031130;28;20268;-65
2023/02/12 12:39:21;;;;;;;9.20;7.03;;;11.30;99.20;;;;;;5032139;28;20190;-65
2023/02/12 12:42:11;;;;;;;9.65;7.70;;;11.50;98.80;;;;;;5030643;28;20598;-65
2023/02/12 12:44:52;;;;;;;9.73;8.15;;;11.10;99.10;;;;;;5030568;28;20182;-65
2023/02/12 12:47:52;;;;;;;8.57;6.65;;;11.40;99.20;;;;;;5030499;28;20327;-65
2023/02/12 12:50:26;;;;;;;7.93;6.75;;;11.60;98.70;;;;;;5027303;28;20205;-65
2023/02/12 12:53:06;;;;;;;8.65;7.75;;;11.70;98.60;;;;;;5025918;28;20562;-65
2023/02/12 12:56:03;;;;;;;7.20;6.45;;;12.30;97.70;;;;;;5030127;28;20533;-65
2023/02/12 12:59:10;;;;;;;8.40;6.50;;;12.20;97.90;;;;;;5020832;28;20186;-65
2023/02/12 13:01:55;;;;;;;7.35;6.32;;;12.40;97.40;;;;;;5023198;28;20190;-65
2023/02/12 13:04:44;;;;;;;7.00;5.47;;;12.00;97.40;;;;;;5026177;28;20247;-65